Time;durP1;ratioP1;P1;durP2;ratioP2;P2;SDS_P1;SDS_P2;PMS_P1;PMS_P2;Temp;Humidity;BMP_temperature;BMP_pressure;BME280_temperature;BME280_humidity;BME280_pressure;Samples;Min_cycle;Max_cycle;Signal;HPM_P1;HPM_P2
2022/04/15 00:04:42;;;;;;;;;;;;;;;20.98;36.66;96054.31;10374617;28;1521;-55
2022/04/15 00:09:43;;;;;;;;;;;;;;;20.99;36.78;96042.72;10374147;28;1969;-53
2022/04/15 00:14:44;;;;;;;;;;;;;;;20.99;36.43;96044.56;10375758;28;1545;-57
2022/04/15 00:19:47;;;;;;;;;;;;;;;21.02;36.50;96057.22;10357969;28;1470;-54
2022/04/15 00:24:47;;;;;;;;;;;;;;;20.99;36.60;96061.19;10355752;28;2138;-56
2022/04/15 00:29:47;;;;;;;;;;;;;;;20.95;36.87;96054.88;10349194;28;1995;-55
2022/04/15 00:34:48;;;;;;;;;;;;;;;20.96;36.65;96064.34;10358084;28;1641;-57
2022/04/15 00:39:48;;;;;;;;;;;;;;;20.95;36.42;96052.22;10354008;28;2154;-56
2022/04/15 00:44:58;;;;;;;;;;;;;;;20.95;36.88;96068.03;10347276;28;1824;-54
2022/04/15 00:49:58;;;;;;;;;;;;;;;20.96;36.63;96072.25;10347575;28;1918;-55
2022/04/15 00:54:58;;;;;;;;;;;;;;;20.96;36.40;96082.78;10347196;28;1848;-52
2022/04/15 00:59:58;;;;;;;;;;;;;;;20.97;36.56;96081.75;10361986;28;1866;-55
2022/04/15 01:05:00;;;;;;;;;;;;;;;20.94;36.71;96069.09;10345431;28;1863;-54
2022/04/15 01:10:05;;;;;;;;;;;;;;;20.96;36.46;96050.38;10363415;28;1927;-56
2022/04/15 01:15:08;;;;;;;;;;;;;;;20.94;36.10;96055.13;10346572;28;1973;-57
2022/04/15 01:20:10;;;;;;;;;;;;;;;20.93;36.28;96064.88;10344711;28;2270;-57
2022/04/15 01:25:15;;;;;;;;;;;;;;;20.95;36.37;96064.63;10346422;28;1872;-55
2022/04/15 01:30:27;;;;;;;;;;;;;;;20.93;36.43;96075.44;10366087;28;1973;-56
2022/04/15 01:35:27;;;;;;;;;;;;;;;20.93;36.00;96059.63;10361413;28;1884;-55
2022/04/15 01:40:27;;;;;;;;;;;;;;;20.94;36.11;96055.13;10360954;28;1964;-55
2022/04/15 01:45:28;;;;;;;;;;;;;;;20.92;36.47;96054.59;10343542;28;1913;-56
2022/04/15 01:50:28;;;;;;;;;;;;;;;20.92;36.11;96060.66;10343812;28;1957;-56
2022/04/15 01:55:28;;;;;;;;;;;;;;;20.91;36.55;96059.09;10344773;28;2490;-55
2022/04/15 02:00:29;;;;;;;;;;;;;;;20.92;36.26;96059.88;10363156;28;1969;-56
2022/04/15 02:05:29;;;;;;;;;;;;;;;20.91;36.36;96061.72;10360139;28;1895;-54
2022/04/15 02:10:29;;;;;;;;;;;;;;;20.91;36.50;96064.38;10347160;28;1984;-55
2022/04/15 02:15:31;;;;;;;;;;;;;;;20.91;36.30;96076.75;10363354;28;1774;-56
2022/04/15 02:20:32;;;;;;;;;;;;;;;20.91;36.23;96082.81;10361491;28;1800;-56
2022/04/15 02:25:32;;;;;;;;;;;;;;;20.91;36.69;96090.72;10360407;28;1750;-54
2022/04/15 02:30:32;;;;;;;;;;;;;;;20.90;36.41;96081.22;10362264;28;1986;-56
2022/04/15 02:35:33;;;;;;;;;;;;;;;20.92;36.21;96086.22;10360793;28;1761;-53
2022/04/15 02:40:34;;;;;;;;;;;;;;;20.90;36.45;96101.50;10360179;28;1964;-56
2022/04/15 02:45:35;;;;;;;;;;;;;;;20.89;36.15;96095.47;10358982;28;1776;-52
2022/04/15 02:50:35;;;;;;;;;;;;;;;20.89;36.09;96095.47;10367316;28;1910;-52
2022/04/15 02:55:36;;;;;;;;;;;;;;;20.88;36.31;96099.16;10367898;28;1500;-51
2022/04/15 03:00:36;;;;;;;;;;;;;;;20.91;36.25;96103.91;10354319;28;1457;-56
2022/04/15 03:05:36;;;;;;;;;;;;;;;20.90;36.28;96101.50;10351214;28;1493;-52
2022/04/15 03:10:37;;;;;;;;;;;;;;;20.88;36.28;96095.72;10364544;28;1910;-55
2022/04/15 03:15:37;;;;;;;;;;;;;;;20.88;36.23;96095.72;10350157;28;1541;-57
2022/04/15 03:20:38;;;;;;;;;;;;;;;20.88;36.18;96103.63;10348592;28;1497;-57
2022/04/15 03:25:38;;;;;;;;;;;;;;;20.87;35.93;96100.22;10364953;28;1912;-56
2022/04/15 03:30:38;;;;;;;;;;;;;;;20.88;36.38;96107.06;10352771;28;1987;-59
2022/04/15 03:35:39;;;;;;;;;;;;;;;20.88;36.24;96107.06;10356089;28;1680;-55
2022/04/15 03:40:39;;;;;;;;;;;;;;;20.87;36.34;96108.13;10359437;28;1444;-56
2022/04/15 03:45:39;;;;;;;;;;;;;;;20.87;36.35;96094.94;10375219;28;1711;-58
2022/04/15 03:50:40;;;;;;;;;;;;;;;20.87;35.99;96089.69;10356423;28;1910;-55
2022/04/15 03:55:40;;;;;;;;;;;;;;;20.88;36.16;96095.72;10373700;28;1429;-56
2022/04/15 04:00:40;;;;;;;;;;;;;;;20.86;36.25;96092.56;10438797;23;2479;-39
2022/04/15 04:05:41;;;;;;;;;;;;;;;20.86;36.29;96111.78;10451970;28;1538;-39
2022/04/15 04:10:41;;;;;;;;;;;;;;;20.86;36.13;96109.16;10426258;28;1906;-39
2022/04/15 04:15:41;;;;;;;;;;;;;;;20.86;36.04;96111.78;10410241;28;1492;-40
2022/04/15 04:20:42;;;;;;;;;;;;;;;20.86;36.00;96108.38;10410136;28;1477;-42
2022/04/15 04:25:42;;;;;;;;;;;;;;;20.88;36.16;96119.44;10409837;28;1504;-38
2022/04/15 04:30:42;;;;;;;;;;;;;;;20.86;36.25;96121.53;10410152;28;2082;-41
2022/04/15 04:35:43;;;;;;;;;;;;;;;20.87;36.14;96117.88;10407838;28;1468;-44
2022/04/15 04:40:45;;;;;;;;;;;;;;;20.86;35.93;96126.81;10407898;28;2330;-40
2022/04/15 04:45:46;;;;;;;;;;;;;;;20.86;35.85;96126.81;10409195;28;1559;-39
2022/04/15 04:50:46;;;;;;;;;;;;;;;20.85;36.17;96136.59;10408115;28;1973;-39
2022/04/15 04:55:47;;;;;;;;;;;;;;;20.86;36.36;96138.16;10407324;28;1554;-40
2022/04/15 05:00:47;;;;;;;;;;;;;;;20.86;36.01;96146.06;10407301;28;1527;-43
2022/04/15 05:05:48;;;;;;;;;;;;;;;20.85;36.49;96152.38;10407402;28;1713;-39
2022/04/15 05:10:51;;;;;;;;;;;;;;;20.85;36.16;96157.66;10410366;28;1906;-39
2022/04/15 05:15:51;;;;;;;;;;;;;;;20.87;36.07;96165.28;10407642;28;1485;-38
2022/04/15 05:20:52;;;;;;;;;;;;;;;20.85;36.14;96167.41;10408205;28;1484;-40
2022/04/15 05:25:52;;;;;;;;;;;;;;;20.85;36.24;96162.94;10407551;28;1366;-42
2022/04/15 05:30:53;;;;;;;;;;;;;;;20.86;36.15;96169.78;10407854;28;1987;-40
2022/04/15 05:35:53;;;;;;;;;;;;;;;20.85;36.00;96178.75;10405880;28;1474;-37
2022/04/15 05:40:54;;;;;;;;;;;;;;;20.84;36.07;96182.41;10406618;28;1553;-39
2022/04/15 05:45:55;;;;;;;;;;;;;;;20.85;35.90;96189.28;10405451;28;1485;-39
2022/04/15 05:50:55;;;;;;;;;;;;;;;20.85;35.89;96183.22;10405098;28;1914;-39
2022/04/15 05:55:56;;;;;;;;;;;;;;;20.85;36.02;96197.19;10403946;28;1544;-39
2022/04/15 06:00:57;;;;;;;;;;;;;;;20.85;35.87;96197.19;10405407;28;1638;-40
2022/04/15 06:05:57;;;;;;;;;;;;;;;20.84;36.24;96195.59;10403993;28;1460;-43
2022/04/15 06:10:58;;;;;;;;;;;;;;;20.84;36.26;96197.44;10406719;28;1973;-40
2022/04/15 06:15:58;;;;;;;;;;;;;;;20.85;36.22;96202.47;10404963;28;1515;-48
2022/04/15 06:21:00;;;;;;;;;;;;;;;20.85;36.00;96210.38;10405310;28;1449;-44
2022/04/15 06:26:01;;;;;;;;;;;;;;;20.84;35.98;96214.03;10405482;28;1472;-43
2022/04/15 06:31:01;;;;;;;;;;;;;;;20.85;35.81;96206.94;10420846;28;1979;-43
2022/04/15 06:36:01;;;;;;;;;;;;;;;20.85;36.17;96212.19;10404073;28;1540;-38
2022/04/15 06:41:02;;;;;;;;;;;;;;;20.85;36.04;96213.00;10404324;28;1512;-41
2022/04/15 06:46:03;;;;;;;;;;;;;;;20.85;36.10;96220.91;10403613;28;1549;-42
2022/04/15 06:51:03;;;;;;;;;;;;;;;20.85;35.96;96228.00;10403300;28;1971;-42
2022/04/15 06:56:04;;;;;;;;;;;;;;;20.85;36.19;96231.44;10404336;28;1489;-39
2022/04/15 07:01:04;;;;;;;;;;;;;;;20.85;36.02;96234.06;10401538;28;1530;-41
2022/04/15 07:06:04;;;;;;;;;;;;;;;20.85;36.23;96239.34;10408548;28;1433;-41
2022/04/15 07:11:05;;;;;;;;;;;;;;;20.85;36.24;96231.44;10413604;28;1978;-42
2022/04/15 07:16:05;;;;;;;;;;;;;;;20.85;36.33;96244.63;10412657;28;2055;-40
2022/04/15 07:21:05;;;;;;;;;;;;;;;20.85;35.99;96241.97;10412721;28;1488;-39
2022/04/15 07:26:07;;;;;;;;;;;;;;;20.85;36.04;96238.56;10411011;28;1413;-39
2022/04/15 07:31:07;;;;;;;;;;;;;;;20.84;36.09;96243.03;10410050;28;1909;-43
2022/04/15 07:41:27;;;;;;;;;;;;;;;20.85;36.04;96235.91;10410008;28;1859;-41
2022/04/15 07:46:27;;;;;;;;;;;;;;;20.85;35.99;96239.34;10409933;28;1449;-43
2022/04/15 07:51:27;;;;;;;;;;;;;;;20.84;35.82;96243.03;10409902;28;1965;-42
2022/04/15 07:56:28;;;;;;;;;;;;;;;20.86;36.21;96240.13;10411026;28;1456;-39
2022/04/15 08:01:28;;;;;;;;;;;;;;;20.86;36.18;96253.28;10408107;28;1814;-40
2022/04/15 08:06:28;;;;;;;;;;;;;;;20.85;36.00;96251.72;10391511;28;1390;-39
2022/04/15 08:11:31;;;;;;;;;;;;;;;20.85;36.44;96252.53;10413280;28;1978;-45
2022/04/15 08:16:31;;;;;;;;;;;;;;;20.84;35.95;96250.94;10407465;28;1480;-41
2022/04/15 08:21:33;;;;;;;;;;;;;;;20.84;36.19;96250.94;10409155;28;1685;-42
2022/04/15 08:26:34;;;;;;;;;;;;;;;20.85;36.31;96265.69;10405836;28;1481;-45
2022/04/15 08:31:34;;;;;;;;;;;;;;;20.85;36.17;96265.69;10408889;28;1915;-44
2022/04/15 08:36:35;;;;;;;;;;;;;;;20.86;36.09;96275.16;10406803;28;1696;-39
2022/04/15 08:41:35;;;;;;;;;;;;;;;20.86;35.87;96271.72;10407759;28;1529;-37
2022/04/15 08:46:36;;;;;;;;;;;;;;;20.87;36.44;96271.50;10407700;28;1746;-40
2022/04/15 08:51:36;;;;;;;;;;;;;;;20.86;36.42;96267.25;10407678;28;1910;-38
2022/04/15 08:56:36;;;;;;;;;;;;;;;20.88;36.00;96272.25;10406970;28;1616;-38
2022/04/15 09:01:37;;;;;;;;;;;;;;;20.90;35.98;96270.94;10407304;28;1473;-37
2022/04/15 09:06:38;;;;;;;;;;;;;;;20.90;36.02;96259.63;10408165;28;1499;-39
2022/04/15 09:11:38;;;;;;;;;;;;;;;20.90;35.97;96273.59;10411530;28;1956;-40
2022/04/15 09:16:45;;;;;;;;;;;;;;;20.90;35.87;96275.44;10413790;28;1494;-40
2022/04/15 09:22:03;;;;;;;;;;;;;;;20.92;35.79;96274.13;10409236;28;1513;-43
2022/04/15 09:27:04;;;;;;;;;;;;;;;20.92;36.14;96266.22;10403332;28;1583;-42
2022/04/15 09:32:05;;;;;;;;;;;;;;;20.92;36.14;96271.47;10402233;28;1977;-42
2022/04/15 09:37:07;;;;;;;;;;;;;;;20.92;36.05;96274.13;10402239;28;1531;-39
2022/04/15 09:42:09;;;;;;;;;;;;;;;20.93;36.20;96272.28;10388671;28;1448;-42
2022/04/15 09:47:09;;;;;;;;;;;;;;;20.94;36.21;96274.66;10384951;28;1576;-39
2022/04/15 09:52:10;;;;;;;;;;;;;;;20.94;36.39;96266.75;10403404;28;1918;-41
2022/04/15 09:57:13;;;;;;;;;;;;;;;20.95;36.23;96262.25;10398987;28;1641;-39
2022/04/15 10:02:13;;;;;;;;;;;;;;;20.95;36.31;96260.44;10464923;23;2798;-58
2022/04/15 10:07:14;;;;;;;;;;;;;;;20.94;36.22;96261.47;10481548;28;1546;-56
2022/04/15 10:12:14;;;;;;;;;;;;;;;20.97;36.44;96260.94;10484286;28;1961;-57
2022/04/15 10:17:17;;;;;;;;;;;;;;;20.97;36.13;96253.03;10480774;28;1583;-55
2022/04/15 10:22:17;;;;;;;;;;;;;;;21.00;36.36;96259.63;10483067;28;1486;-58
2022/04/15 10:27:24;;;;;;;;;;;;;;;20.99;36.13;96258.03;10484872;28;1453;-56
2022/04/15 10:32:25;;;;;;;;;;;;;;;21.00;36.24;96249.06;10484011;28;1914;-58
2022/04/15 10:37:45;;;;;;;;;;;;;;;21.01;36.33;96240.91;10480704;28;1812;-56
2022/04/15 10:42:45;;;;;;;;;;;;;;;21.02;36.27;96242.53;10483884;28;1715;-54
2022/04/15 10:47:56;;;;;;;;;;;;;;;21.03;36.06;96236.22;10483903;28;1473;-53
2022/04/15 10:53:17;;;;;;;;;;;;;;;21.03;36.23;96243.31;10484143;28;1902;-52
2022/04/15 10:58:18;;;;;;;;;;;;;;;21.02;36.31;96245.16;10501969;28;1431;-55
2022/04/15 11:03:19;;;;;;;;;;;;;;;21.03;36.19;96249.38;10481101;28;1649;-54
2022/04/15 11:08:20;;;;;;;;;;;;;;;21.03;36.51;96238.03;10481618;28;1906;-53
2022/04/15 11:13:24;;;;;;;;;;;;;;;21.03;36.42;96238.03;10482043;28;1488;-56
2022/04/15 11:18:24;;;;;;;;;;;;;;;21.03;36.30;96232.78;10480619;28;1445;-57
2022/04/15 11:23:26;;;;;;;;;;;;;;;21.03;36.26;96228.31;10496378;28;1638;-53
2022/04/15 11:28:27;;;;;;;;;;;;;;;21.03;36.85;96228.31;10483204;28;1971;-57
2022/04/15 11:33:27;;;;;;;;;;;;;;;21.04;36.13;96224.59;10479694;28;1799;-56
2022/04/15 11:38:28;;;;;;;;;;;;;;;21.05;36.27;96220.91;10482256;28;1418;-57
2022/04/15 11:43:28;;;;;;;;;;;;;;;21.05;36.19;96218.28;10461914;28;1698;-56
2022/04/15 11:48:28;;;;;;;;;;;;;;;21.06;36.54;96217.22;10482388;28;1914;-57
2022/04/15 11:53:29;;;;;;;;;;;;;;;21.08;36.32;96215.09;10487181;28;1513;-58
2022/04/15 11:58:33;;;;;;;;;;;;;;;21.08;36.39;96212.47;10489339;28;1564;-53
2022/04/15 12:03:34;;;;;;;;;;;;;;;21.06;36.41;96211.94;10487650;28;1423;-55
2022/04/15 12:08:35;;;;;;;;;;;;;;;21.08;36.21;96203.00;10487924;28;1973;-53
2022/04/15 12:13:35;;;;;;;;;;;;;;;21.10;36.03;96206.16;10489307;28;1544;-56
2022/04/15 12:18:35;;;;;;;;;;;;;;;21.12;36.17;96204.84;10487819;28;1458;-58
2022/04/15 12:23:36;;;;;;;;;;;;;;;21.11;36.39;96191.91;10469821;28;1539;-57
2022/04/15 12:34:02;;;;;;;;;;;;;;;21.12;36.18;96183.75;10485433;28;1831;-54
2022/04/15 12:39:03;;;;;;;;;;;;;;;21.13;36.25;96174.78;10485621;28;1438;-56
2022/04/15 12:44:16;;;;;;;;;;;;;;;21.13;36.40;96161.59;10488830;28;1468;-57
2022/04/15 12:49:33;;;;;;;;;;;;;;;21.16;36.32;96161.06;10485572;28;1971;-56
2022/04/15 12:54:34;;;;;;;;;;;;;;;21.15;36.46;96156.84;10487439;28;1804;-54
2022/04/15 12:59:36;;;;;;;;;;;;;;;21.15;36.26;96143.66;10488125;28;1470;-52
2022/04/15 13:04:37;;;;;;;;;;;;;;;21.17;36.34;96143.38;10486513;28;1539;-55
2022/04/15 13:09:39;;;;;;;;;;;;;;;21.18;36.24;96140.50;10483229;28;1906;-54
2022/04/15 13:14:40;;;;;;;;;;;;;;;21.19;36.62;96141.28;10486421;28;1459;-57
2022/04/15 13:19:43;;;;;;;;;;;;;;;21.20;36.58;96132.31;10484305;28;1549;-54
2022/04/15 13:24:44;;;;;;;;;;;;;;;21.21;36.18;96136.50;10487691;28;1471;-56
2022/04/15 13:29:44;;;;;;;;;;;;;;;21.21;36.26;96131.25;10479628;28;1914;-53
2022/04/15 13:34:44;;;;;;;;;;;;;;;21.20;36.35;96127.84;10483327;28;1458;-54
2022/04/15 13:39:47;;;;;;;;;;;;;;;21.19;36.05;96122.81;10482009;28;1515;-53
2022/04/15 13:44:48;;;;;;;;;;;;;;;21.20;36.30;96127.03;10480024;28;1466;-57
2022/04/15 13:49:48;;;;;;;;;;;;;;;21.18;36.12;96123.88;10485708;28;1910;-56
2022/04/15 14:00:08;;;;;;;;;;;;;;;21.18;36.12;96123.88;10500939;28;1511;-51
2022/04/15 14:05:08;;;;;;;;;;;;;;;21.17;36.27;96117.03;10482828;28;1440;-54
2022/04/15 14:10:09;;;;;;;;;;;;;;;21.16;36.21;96118.88;10483795;28;1902;-56
2022/04/15 14:15:09;;;;;;;;;;;;;;;21.16;36.20;96123.38;10480939;28;1602;-55
2022/04/15 14:20:10;;;;;;;;;;;;;;;21.16;36.02;96116.25;10484772;28;1702;-53
2022/04/15 14:25:10;;;;;;;;;;;;;;;21.18;36.63;96121.25;10487751;28;1447;-53
2022/04/15 14:30:11;;;;;;;;;;;;;;;21.19;36.17;96122.81;10484181;28;1887;-57
2022/04/15 14:35:15;;;;;;;;;;;;;;;21.18;36.31;96115.97;10479912;28;1514;-52
2022/04/15 14:40:16;;;;;;;;;;;;;;;21.18;36.17;96115.97;10481912;28;1708;-57
2022/04/15 14:45:19;;;;;;;;;;;;;;;21.18;36.02;96114.13;10483587;28;1433;-57
2022/04/15 14:50:19;;;;;;;;;;;;;;;21.17;36.16;96112.53;10485747;28;1922;-57
2022/04/15 14:55:21;;;;;;;;;;;;;;;21.18;36.07;96106.22;10479157;28;1527;-56
2022/04/15 15:00:21;;;;;;;;;;;;;;;21.19;36.21;96104.34;10486846;28;1506;-53
2022/04/15 15:05:22;;;;;;;;;;;;;;;21.19;36.35;96104.34;10484173;28;1481;-53
2022/04/15 15:10:22;;;;;;;;;;;;;;;21.19;36.35;96094.59;10488062;28;2048;-55
2022/04/15 15:15:23;;;;;;;;;;;;;;;21.19;36.31;96105.16;10485990;28;1538;-54
2022/04/15 15:20:23;;;;;;;;;;;;;;;21.19;36.13;96104.34;10483197;28;1466;-52
2022/04/15 15:30:45;;;;;;;;;;;;;;;21.17;36.14;96091.44;10488988;28;1906;-56
2022/04/15 15:35:46;;;;;;;;;;;;;;;21.17;36.10;96091.44;10489878;28;1493;-54
2022/04/15 15:40:50;;;;;;;;;;;;;;;21.17;36.04;96098.56;10493539;28;1482;-54
2022/04/15 15:45:51;;;;;;;;;;;;;;;21.17;36.12;96099.38;10494033;28;1432;-55
2022/04/15 15:50:52;;;;;;;;;;;;;;;21.18;36.17;96089.63;10489551;28;1913;-55
2022/04/15 15:55:52;;;;;;;;;;;;;;;21.16;36.03;96079.34;10491915;28;1875;-56
2022/04/15 16:00:52;;;;;;;;;;;;;;;21.17;36.05;96086.19;10490753;28;1457;-53
2022/04/15 16:05:52;;;;;;;;;;;;;;;21.18;36.09;96084.34;10465962;22;1601;-73
2022/04/15 16:10:53;;;;;;;;;;;;;;;21.18;36.06;96089.63;10376282;28;1918;-73
2022/04/15 16:15:54;;;;;;;;;;;;;;;21.17;36.13;96094.09;10362444;28;1485;-74
2022/04/15 16:20:55;;;;;;;;;;;;;;;21.17;36.09;96103.84;10422965;22;1990;-56
2022/04/15 16:25:55;;;;;;;;;;;;;;;21.16;36.08;96102.28;10415358;28;2123;-57
2022/04/15 16:30:56;;;;;;;;;;;;;;;21.16;35.94;96107.53;10406603;28;1967;-56
2022/04/15 16:35:57;;;;;;;;;;;;;;;21.15;35.97;96106.75;10380813;28;1506;-56
2022/04/15 16:40:58;;;;;;;;;;;;;;;21.15;36.16;96108.59;10381551;28;1527;-54
2022/04/15 16:45:58;;;;;;;;;;;;;;;21.14;35.96;96107.03;10398070;28;1541;-56
2022/04/15 16:51:01;;;;;;;;;;;;;;;21.14;36.26;96107.03;10402964;28;1961;-57
2022/04/15 17:01:21;;;;;;;;;;;;;;;21.12;36.23;96111.78;10394428;28;1561;-56
2022/04/15 17:06:22;;;;;;;;;;;;;;;21.12;36.03;96122.31;10396408;28;1467;-56
2022/04/15 17:11:22;;;;;;;;;;;;;;;21.13;36.27;96121.25;10375136;28;1890;-56
2022/04/15 17:16:23;;;;;;;;;;;;;;;21.10;36.40;96125.22;10394218;28;1799;-57
2022/04/15 17:21:23;;;;;;;;;;;;;;;21.10;35.99;96134.97;10377348;28;1525;-57
2022/04/15 17:26:23;;;;;;;;;;;;;;;21.11;36.23;96134.69;10362179;28;1459;-57
2022/04/15 17:31:24;;;;;;;;;;;;;;;21.10;36.14;96132.34;10394540;28;1910;-56
2022/04/15 17:36:24;;;;;;;;;;;;;;;21.09;36.09;96147.38;10380916;28;1616;-56
2022/04/15 17:41:25;;;;;;;;;;;;;;;21.06;36.21;96143.41;10381528;28;1459;-55
2022/04/15 17:46:25;;;;;;;;;;;;;;;21.07;36.11;96144.19;10378602;28;1522;-55
2022/04/15 17:51:25;;;;;;;;;;;;;;;21.07;36.09;96154.75;10376261;28;1910;-57
2022/04/15 17:56:25;;;;;;;;;;;;;;;21.05;36.04;96155.03;10380712;28;1458;-57
2022/04/15 18:01:27;;;;;;;;;;;;;;;21.05;35.94;96170.84;10376972;28;1448;-57
2022/04/15 18:06:27;;;;;;;;;;;;;;;21.06;35.83;96163.72;10376343;28;1477;-56
2022/04/15 18:11:27;;;;;;;;;;;;;;;21.05;36.04;96176.09;10372778;28;1977;-57
2022/04/15 18:16:28;;;;;;;;;;;;;;;21.04;36.02;96185.06;10392677;28;1498;-56
2022/04/15 18:21:29;;;;;;;;;;;;;;;21.03;35.91;96188.75;10374925;28;2215;-55
2022/04/15 18:26:29;;;;;;;;;;;;;;;21.03;36.19;96199.31;10376585;28;1576;-56
2022/04/15 18:31:30;;;;;;;;;;;;;;;21.03;35.81;96215.13;10389209;28;1977;-56
2022/04/15 18:36:31;;;;;;;;;;;;;;;21.04;35.78;96205.38;10391067;28;1795;-54
2022/04/15 18:41:35;;;;;;;;;;;;;;;21.03;35.86;96207.22;10377810;28;1518;-54
2022/04/15 18:46:35;;;;;;;;;;;;;;;21.03;35.91;96212.47;10391348;28;1545;-51
2022/04/15 18:56:56;;;;;;;;;;;;;;;21.02;35.68;96231.97;10394371;28;1392;-56
2022/04/15 19:01:57;;;;;;;;;;;;;;;21.02;35.72;96225.91;10401925;28;1549;-55
2022/04/15 19:06:57;;;;;;;;;;;;;;;21.01;35.75;96233.00;10400629;28;1567;-56
2022/04/15 19:11:57;;;;;;;;;;;;;;;21.02;35.68;96242.53;10395896;28;1973;-58
2022/04/15 19:16:57;;;;;;;;;;;;;;;21.01;35.73;96235.66;10381832;28;1451;-56
2022/04/15 19:21:58;;;;;;;;;;;;;;;21.00;35.64;96238.53;10380495;28;1447;-55
2022/04/15 19:26:58;;;;;;;;;;;;;;;20.99;35.98;96245.66;10383103;28;1493;-56
2022/04/15 19:31:59;;;;;;;;;;;;;;;21.00;35.69;96254.34;10393525;28;2035;-56
2022/04/15 19:36:59;;;;;;;;;;;;;;;20.99;35.61;96261.47;10382183;28;1467;-56
2022/04/15 19:41:59;;;;;;;;;;;;;;;21.00;35.57;96256.97;10384046;28;1508;-56
2022/04/15 19:46:59;;;;;;;;;;;;;;;20.99;35.63;96263.31;10379047;28;1547;-55
2022/04/15 19:52:00;;;;;;;;;;;;;;;20.98;35.51;96259.88;10400698;28;1973;-56
2022/04/15 20:02:19;;;;;;;;;;;;;;;20.97;35.59;96282.03;10384451;28;1416;-53
2022/04/15 20:07:20;;;;;;;;;;;;;;;20.97;35.82;96297.84;10394654;28;1521;-56
2022/04/15 20:12:21;;;;;;;;;;;;;;;20.96;35.80;96306.78;10392673;28;1910;-56
2022/04/15 20:17:22;;;;;;;;;;;;;;;20.98;35.67;96309.97;10396031;28;1434;-57
2022/04/15 20:22:28;;;;;;;;;;;;;;;20.98;35.57;96325.78;10395014;28;1511;-56
2022/04/15 20:27:29;;;;;;;;;;;;;;;20.98;35.33;96335.53;10381364;28;1476;-54
2022/04/15 20:32:30;;;;;;;;;;;;;;;20.97;35.42;96345.28;10379602;28;1966;-57
2022/04/15 20:37:30;;;;;;;;;;;;;;;20.96;35.23;96348.16;10397980;28;1483;-56
2022/04/15 20:42:31;;;;;;;;;;;;;;;20.96;35.44;96354.25;10398453;28;1484;-56
2022/04/15 20:47:31;;;;;;;;;;;;;;;20.95;35.21;96368.47;10397250;28;1471;-55
2022/04/15 20:52:32;;;;;;;;;;;;;;;20.96;35.34;96380.59;10397085;28;1971;-52
2022/04/15 20:57:33;;;;;;;;;;;;;;;20.95;35.19;96386.94;10380298;28;1760;-55
2022/04/15 21:02:33;;;;;;;;;;;;;;;20.94;35.15;96393.25;10401004;28;1462;-58
2022/04/15 21:07:36;;;;;;;;;;;;;;;20.95;35.17;96399.31;10379202;28;1651;-53
2022/04/15 21:12:37;;;;;;;;;;;;;;;20.94;35.22;96389.81;10395298;28;1976;-57
2022/04/15 21:17:37;;;;;;;;;;;;;;;20.93;35.30;96396.16;10381848;28;1578;-57
2022/04/15 21:22:37;;;;;;;;;;;;;;;20.92;35.12;96405.88;10400648;28;1541;-58
2022/04/15 21:27:38;;;;;;;;;;;;;;;20.91;35.02;96404.31;10399568;28;1461;-56
2022/04/15 21:32:38;;;;;;;;;;;;;;;20.91;35.18;96412.22;10377012;28;1906;-56
2022/04/15 21:37:39;;;;;;;;;;;;;;;20.91;35.18;96409.59;10392916;28;1993;-55
2022/04/15 21:42:40;;;;;;;;;;;;;;;20.91;35.22;96411.41;10393469;28;1597;-55
2022/04/15 21:47:41;;;;;;;;;;;;;;;20.89;35.09;96411.69;10397453;28;1492;-56
2022/04/15 21:52:43;;;;;;;;;;;;;;;20.90;35.27;96423.81;10394091;28;1971;-57
2022/04/15 21:57:44;;;;;;;;;;;;;;;20.90;35.09;96425.63;10397685;28;1503;-56
2022/04/15 22:02:44;;;;;;;;;;;;;;;20.89;35.01;96427.50;10378853;28;1480;-56
2022/04/15 22:07:45;;;;;;;;;;;;;;;20.89;35.27;96426.69;10376948;28;1469;-54
2022/04/15 22:12:46;;;;;;;;;;;;;;;20.88;35.15;96436.44;10374422;28;2028;-57
2022/04/15 22:17:46;;;;;;;;;;;;;;;20.88;35.16;96435.66;10378178;28;1447;-56
2022/04/15 22:22:46;;;;;;;;;;;;;;;20.86;35.00;96443.00;10374452;28;1588;-57
2022/04/15 22:27:48;;;;;;;;;;;;;;;20.85;35.09;96452.78;10396029;28;1536;-54
2022/04/15 22:32:49;;;;;;;;;;;;;;;20.84;35.00;96453.81;10411457;23;1918;-72
2022/04/15 22:37:49;;;;;;;;;;;;;;;20.84;35.03;96458.28;10443140;28;1515;-73
2022/04/15 22:42:49;;;;;;;;;;;;;;;20.83;35.17;96454.88;10477947;28;1483;-72
2022/04/15 22:47:51;;;;;;;;;;;;;;;20.83;35.05;96454.88;10449254;28;1659;-72
2022/04/15 22:52:52;;;;;;;;;;;;;;;20.83;35.09;96454.88;10465028;28;1930;-73
2022/04/15 22:57:56;;;;;;;;;;;;;;;20.82;35.20;96466.47;10472841;28;1483;-73
2022/04/15 23:02:57;;;;;;;;;;;;;;;20.81;35.04;96472.78;10471802;28;1537;-73
2022/04/15 23:07:57;;;;;;;;;;;;;;;20.81;34.92;96472.78;10477991;28;1609;-73
2022/04/15 23:12:57;;;;;;;;;;;;;;;20.79;34.94;96466.97;10468042;28;1887;-73
2022/04/15 23:17:58;;;;;;;;;;;;;;;20.79;35.21;96472.22;10458687;28;1467;-73
2022/04/15 23:23:01;;;;;;;;;;;;;;;20.79;35.19;96484.63;10482604;28;1458;-72
2022/04/15 23:28:01;;;;;;;;;;;;;;;20.79;34.85;96479.38;10481207;28;1646;-73
2022/04/15 23:33:01;;;;;;;;;;;;;;;20.78;35.03;96480.41;10478585;28;2115;-73
2022/04/15 23:38:02;;;;;;;;;;;;;;;20.79;34.98;96474.88;10479928;28;1542;-73
2022/04/15 23:43:02;;;;;;;;;;;;;;;20.78;34.71;96473.28;10461730;28;1859;-73
2022/04/15 23:53:22;;;;;;;;;;;;;;;20.78;34.84;96486.47;10497419;28;1967;-73
2022/04/15 23:58:22;;;;;;;;;;;;;;;20.77;35.04;96471.69;10485767;28;1529;-72
